Terminal Aerodrome Forecast
Issued by NWS Sterling, VA

Current Version | Previous Version | Text Only | Print | Product List | Glossary Off
Versions: 1 2 3 4 5 6 7 8 9 10 11 12 13 14 15 16 17 18 19

676
FTUS41 KLWX 190540
TAFMRB
TAF
KMRB 190540Z 1906/2006 14004KT P6SM BKN250
     FM191200 16006KT P6SM VCSH BKN020
     FM191600 17009KT P6SM VCSH BKN015
     FM192200 17005KT P6SM BKN080
     FM200500 19005KT P6SM BKN200 WS020/23035KT=

USA.gov is the U.S. government's official web portal to all federal, state and local government web resources and services.